This demonstration page uses our WeatherBlox Daily Observations layout. Learn more.

Left ArrowRight Arrow

Hourly Observations for September 9, 2017

Temp ( °F °C ) Dew Point ( °F °C ) Humidity (%) Winds ( mph kmh ) Pressure ( in mb ) Visibility ( mi km ) Precip ( " mm )
12:54 am 00:54 Clear 69 20.6 53 11.7 57 57 S 8 13 30.09 1019 10 16.0934 0 0
1:54 am 01:54 Clear 67 19.4 53 11.7 61 61 S 8 13 30.1 1019 10 16.0934 0 0
2:54 am 02:54 Clear 66 18.9 52 11.1 61 61 S 6 9 30.11 1020 10 16.0934 0 0
3:54 am 03:54 Clear 62 16.7 52 11.1 70 70 S 7 11 30.12 1020 10 16.0934 0 0
4:54 am 04:54 Clear 59 15 53 11.7 81 81 SSE 6 9 30.14 1021 10 16.0934 0 0
5:54 am 05:54 Clear 59 15 53 11.7 81 81 SSE 5 7 30.14 1021 10 16.0934 0 0
6:54 am 06:54 Clear 60 15.6 53 11.7 78 78 SSE 3 6 30.16 1021 10 16.0934 0 0
7:54 am 07:54 Sunny 62 16.7 55 12.8 78 78 SSE 7 11 30.17 1022 10 16.0934 0 0
8:54 am 08:54 Sunny 65 18.3 57 13.9 76 76 S 7 11 30.17 1022 10 16.0934 0 0
9:54 am 09:54 Sunny 72 22.2 57 13.9 59 59 SSW 8 13 30.18 1022 10 16.0934 0 0
10:54 am 10:54 Sunny 78 25.6 56 13.3 47 47 S 12 19 30.2 1023 10 16.0934 0 0
11:54 am 11:54 Sunny 81 27.2 56 13.3 42 42 S 14 22 30.19 1022 10 16.0934 0 0
12:54 pm 12:54 Sunny 83 28.3 56 13.3 40 40 SSW 15 24 30.19 1022 10 16.0934 0 0
1:54 pm 13:54 Sunny 83 28.3 55 12.8 38 38 S 17 28 30.16 1021 10 16.0934 0 0
2:54 pm 14:54 Sunny 83 28.3 55 12.8 38 38 S 15 24 30.14 1021 10 16.0934 0 0
3:54 pm 15:54 Sunny 81 27.2 54 12.2 39 39 S 12 19 30.11 1020 10 16.0934 0 0
4:54 pm 16:54 Partly Cloudy 80 26.7 53 11.7 39 39 SSE 15 24 30.09 1019 10 16.0934 0 0
5:54 pm 17:54 Sunny 81 27.2 54 12.2 39 39 SSE 9 15 30.1 1019 10 16.0934 0 0
6:54 pm 18:54 Sunny 78 25.6 54 12.2 43 43 SSE 8 13 30.1 1019 10 16.0934 0 0
7:54 pm 19:54 Clear 77 25 54 12.2 45 45 SSE 8 13 30.11 1020 10 16.0934 0 0
8:54 pm 20:54 Mostly Clear 76 24.4 54 12.2 47 47 SSE 13 20 30.1 1019 10 16.0934 0 0
9:54 pm 21:54 Clear 75 23.9 55 12.8 50 50 SSE 13 20 30.13 1020 10 16.0934 0 0
10:54 pm 22:54 Clear 72 22.2 58 14.4 61 61 SSE 10 17 30.14 1021 10 16.0934 0 0
11:54 pm 23:54 Clear 71 21.7 58 14.4 63 63 SSE 12 19 30.14 1021 10 16.0934 0 0

Powered by AerisWeather